Orofino, ID

12:57 PM PDT on March 29, 2017 (GMT -0700)
MD3277 | | Change Station
Active Advisory: Areal Flood Advisory Active Notice: Areal Flood Advisory

Elev 1046 ft 46.48 °N, 116.27 °W | Updated 2 minutes ago

Mostly Cloudy
Mostly Cloudy
47.0 °F
Feels Like 47 °F
N
0.0
Wind Variable Wind from ESE

Today
High -- | Low -- °F
--% Chance of Precip.
Yesterday
High -- | Low -- °F
Precip. -- in
Pressure 29.96 in
Visibility 10.0 miles
Clouds Overcast 5000 ft
Windchill 47 °F
Dew Point 45 °F
Humidity 93%
Rainfall 0.12 in
Snow Depth Not available.
6:29 AM 7:10 PM
Waxing Crescent, 4% visible
METAR KLWS 291856Z 09010KT 10SM -RA OVC050 09/07 A2994 RMK AO2 RAB06 SLP143 P0001 T00940067
Pressure 29.96 in
Visibility 10.0 miles
Clouds Overcast 5000 ft
Windchill 47 °F
Dew Point 45 °F
Humidity 93%
Rainfall 0.12 in
Snow Depth Not available.
6:29 AM 7:10 PM
Waxing Crescent, 4% visible
METAR KLWS 291856Z 09010KT 10SM -RA OVC050 09/07 A2994 RMK AO2 RAB06 SLP143 P0001 T00940067

Get Your Daily Forecast Email!

Thanks for signing up!

Be on the lookout for a verification email in your inbox.

You'll start receiving severe weather alerts in your inbox..

×

10-Day Weather Forecast

Almanac

Astronomy

Mar. 29, 2017 Rise Set
Actual Time
Civil Twilight
Nautical Twilight
Astronomical Twilight
Moon
Length of Visible Light
Length of Day
Tomorrow will be .
, % of the Moon is Illuminated

Today's Extremes

State Highs State Lows

Community

WunderPhotos

Upload Photos

1,962,540 photos uploaded!

WunderBlog® & News

Nearby

Air Quality

  Air Quality AQ Index Pollutant
Not available.

Snow Depth

Station Depth Elevation

Earthquake Activity

City Distance Mag. Time & Date
Minimum magnitude displayed is 2.5.

Earthquake Activity

City Distance Mag. Time & Date
Minimum magnitude displayed is 2.5.

Coastal Water Temperatures

Place Temperature

Stations

Nearby Weather Stations

Station Location Temp. Windchill Dew Point Humidity Wind Precip. Elev Updated Type
                   

Watches & Warnings

Areal Flood Advisory
Issued: 10:51 AM MDT Mar. 29, 2017 – National Weather Service

The National Weather Service in Missoula has issued a

* flood advisory for...
west central Lemhi County in east central Idaho...
Idaho County in central Idaho...
central Clearwater County in the Panhandle of Idaho...

* until 445 PM MDT Thursday/345 PM PDT Thursday/

* at 1040 am MDT/940 am PDT/, radar showed large area of rain across
eastern Washington and Oregon moving into central Idaho. Steady
rain, moderate to heavy at times, is expected to persist through
Thursday. The intense moderate to heavy rain at times may produce
rock and/or mud slides in areas suseptible to these events. The
steady precipitation is expected to diminish late Thursday
afternoon.


Lat... Lon 4618 11618 4623 11601 4634 11615 4670 11606
      4672 11508 4509 11441 4513 11473 4518 11472
      4519 11472 4520 11470 4519 11523 4533 11638